NEOK1: Neosho R at Neosho Rapids, KS

                                SHEF ID:       NEOK1     NEOSHO R AT NEOSHO RAPIDS, KS
STATION TYPE:

STAGE RIV-FLOW BAT-LOAD
ft cfs volt
Ccp-Rev Ccp-Rev Ccp-Rev
(America/Chicago)
04/29 00:00 17.04 12084 12.53
04/29 01:00 16.56 11617 12.50
04/29 02:00 16.08 11155 12.47
04/29 03:00 15.63 10727 12.44
04/29 04:00 15.19 10313 12.40
04/29 05:00 14.78 9931 12.36
04/29 06:00 14.38 9561 12.33
04/29 07:00 14.01 9223 12.31
04/29 08:00 13.68 8925 12.37
04/29 09:00 13.36 8638 13.09
04/29 10:00 13.07 8380 13.36
04/29 11:00 12.81 8150 13.19
04/29 12:00 12.57 7940 13.16
04/29 13:00 12.36 7757 13.11
04/29 14:00 12.18 7601 13.10
04/29 15:00 12.00 7446 13.03
04/29 16:00 11.86 7326 12.99
04/29 17:00 11.73 7216 12.96
04/29 18:00 11.61 7114 12.94
04/29 19:00 11.51 7029 12.88
04/29 20:00 11.40 6936 12.75
04/29 21:00 11.30 6852 12.62
04/29 22:00 11.21 6777 12.59
04/29 23:00 11.13 6710 12.55
Data processed at Thu 30Apr2026 04:36 GMT

NOTICE: If you are parsing this page

Please convert to using our Data API. Starting early 2026 we will be migrating to: https://water.usace.army.mil with modern pages rendered in JavaScript. When this migration completes you will no longer be able to scrape this page! CWMSDataAPI (CDA)

Timeseries IDs (TSIDs)

TSIDs used from left to right in the data table
NEOR.Stage.Inst.1Hour.0.Ccp-Rev
NEOR.Flow.Inst.1Hour.0.Ccp-Rev
NEOR.Volt-Battery Load.Inst.1Hour.0.Ccp-Rev

                            

All information presented herein is the property of the government of the United States of America and may be revised or deleted at any time without prior notice. Dissemination of this information without the expressed written consent of the Public Affairs Office, Tulsa District U.S. Army Corps of Engineers is strictly prohibited. These data are gathered electronically and, as presented, have NOT undergone any form of quality control. These data are NOT guaranteed to be valid or correct.